sensor_id;sensor_type;location;lat;lon;timestamp;P1;durP1;ratioP1;P2;durP2;ratioP2
4601;SDS011;2313;48.552;9.370;2022-11-30T00:01:13;27.63;;;13.07;;
4601;SDS011;2313;48.552;9.370;2022-11-30T00:03:43;24.53;;;12.53;;
4601;SDS011;2313;48.552;9.370;2022-11-30T00:06:11;21.83;;;12.10;;
4601;SDS011;2313;48.552;9.370;2022-11-30T00:08:38;26.53;;;12.63;;
4601;SDS011;2313;48.552;9.370;2022-11-30T00:11:08;20.60;;;12.10;;
4601;SDS011;2313;48.552;9.370;2022-11-30T00:13:38;24.27;;;13.10;;
4601;SDS011;2313;48.552;9.370;2022-11-30T00:16:04;22.37;;;12.37;;
4601;SDS011;2313;48.552;9.370;2022-11-30T00:18:30;27.27;;;13.30;;
4601;SDS011;2313;48.552;9.370;2022-11-30T00:21:00;33.90;;;14.33;;
4601;SDS011;2313;48.552;9.370;2022-11-30T00:23:30;27.40;;;13.33;;
4601;SDS011;2313;48.552;9.370;2022-11-30T00:26:02;28.00;;;13.20;;
4601;SDS011;2313;48.552;9.370;2022-11-30T00:28:29;28.00;;;12.83;;
4601;SDS011;2313;48.552;9.370;2022-11-30T00:30:57;26.50;;;12.50;;
4601;SDS011;2313;48.552;9.370;2022-11-30T00:33:23;23.70;;;10.90;;
4601;SDS011;2313;48.552;9.370;2022-11-30T00:35:56;21.50;;;11.93;;
4601;SDS011;2313;48.552;9.370;2022-11-30T00:38:30;20.80;;;11.57;;
4601;SDS011;2313;48.552;9.370;2022-11-30T00:40:57;17.50;;;9.80;;
4601;SDS011;2313;48.552;9.370;2022-11-30T00:43:23;19.27;;;10.30;;
4601;SDS011;2313;48.552;9.370;2022-11-30T00:45:48;11.97;;;8.13;;
4601;SDS011;2313;48.552;9.370;2022-11-30T00:48:14;13.37;;;8.23;;
4601;SDS011;2313;48.552;9.370;2022-11-30T00:50:39;18.70;;;8.80;;
4601;SDS011;2313;48.552;9.370;2022-11-30T00:53:05;16.80;;;8.57;;
4601;SDS011;2313;48.552;9.370;2022-11-30T00:55:31;14.57;;;8.90;;
4601;SDS011;2313;48.552;9.370;2022-11-30T00:57:57;17.90;;;7.50;;
4601;SDS011;2313;48.552;9.370;2022-11-30T01:00:23;15.30;;;8.60;;
4601;SDS011;2313;48.552;9.370;2022-11-30T01:02:55;13.33;;;8.40;;
4601;SDS011;2313;48.552;9.370;2022-11-30T01:05:21;22.40;;;8.50;;
4601;SDS011;2313;48.552;9.370;2022-11-30T01:07:46;17.83;;;8.70;;
4601;SDS011;2313;48.552;9.370;2022-11-30T01:10:12;16.67;;;8.67;;
4601;SDS011;2313;48.552;9.370;2022-11-30T01:12:38;17.60;;;9.57;;
4601;SDS011;2313;48.552;9.370;2022-11-30T01:15:03;12.63;;;8.37;;
4601;SDS011;2313;48.552;9.370;2022-11-30T01:17:29;13.27;;;8.37;;
4601;SDS011;2313;48.552;9.370;2022-11-30T01:19:54;13.77;;;7.93;;
4601;SDS011;2313;48.552;9.370;2022-11-30T01:22:20;13.60;;;8.50;;
4601;SDS011;2313;48.552;9.370;2022-11-30T01:24:46;14.33;;;8.40;;
4601;SDS011;2313;48.552;9.370;2022-11-30T01:27:11;14.43;;;8.43;;
4601;SDS011;2313;48.552;9.370;2022-11-30T01:29:37;13.37;;;8.57;;
4601;SDS011;2313;48.552;9.370;2022-11-30T01:32:03;15.80;;;9.00;;
4601;SDS011;2313;48.552;9.370;2022-11-30T01:34:29;14.73;;;8.80;;
4601;SDS011;2313;48.552;9.370;2022-11-30T01:36:54;18.30;;;10.40;;
4601;SDS011;2313;48.552;9.370;2022-11-30T01:39:20;19.67;;;9.63;;
4601;SDS011;2313;48.552;9.370;2022-11-30T01:41:45;14.80;;;9.60;;
4601;SDS011;2313;48.552;9.370;2022-11-30T01:46:56;18.40;;;9.10;;
4601;SDS011;2313;48.552;9.370;2022-11-30T01:52:28;20.47;;;9.60;;
4601;SDS011;2313;48.552;9.370;2022-11-30T02:00:08;27.67;;;9.93;;
4601;SDS011;2313;48.552;9.370;2022-11-30T02:02:51;18.97;;;9.83;;
4601;SDS011;2313;48.552;9.370;2022-11-30T02:05:37;15.10;;;9.37;;
4601;SDS011;2313;48.552;9.370;2022-11-30T02:08:05;15.27;;;9.90;;
4601;SDS011;2313;48.552;9.370;2022-11-30T02:10:33;14.33;;;8.87;;
4601;SDS011;2313;48.552;9.370;2022-11-30T02:15:39;17.00;;;9.57;;
4601;SDS011;2313;48.552;9.370;2022-11-30T02:18:31;17.47;;;9.40;;
4601;SDS011;2313;48.552;9.370;2022-11-30T02:21:32;18.60;;;9.27;;
4601;SDS011;2313;48.552;9.370;2022-11-30T02:27:08;17.03;;;9.43;;
4601;SDS011;2313;48.552;9.370;2022-11-30T02:32:21;18.97;;;8.80;;
4601;SDS011;2313;48.552;9.370;2022-11-30T02:34:52;16.73;;;8.37;;
4601;SDS011;2313;48.552;9.370;2022-11-30T02:37:21;14.23;;;9.63;;
4601;SDS011;2313;48.552;9.370;2022-11-30T02:39:49;16.40;;;9.57;;
4601;SDS011;2313;48.552;9.370;2022-11-30T02:42:14;15.10;;;8.93;;
4601;SDS011;2313;48.552;9.370;2022-11-30T02:44:41;19.87;;;10.77;;
4601;SDS011;2313;48.552;9.370;2022-11-30T02:47:11;22.27;;;10.20;;
4601;SDS011;2313;48.552;9.370;2022-11-30T02:52:31;19.90;;;10.77;;
4601;SDS011;2313;48.552;9.370;2022-11-30T02:55:07;34.70;;;11.50;;
4601;SDS011;2313;48.552;9.370;2022-11-30T02:57:35;15.30;;;10.10;;
4601;SDS011;2313;48.552;9.370;2022-11-30T03:00:03;15.37;;;9.23;;
4601;SDS011;2313;48.552;9.370;2022-11-30T03:02:31;19.63;;;10.30;;
4601;SDS011;2313;48.552;9.370;2022-11-30T03:04:56;31.30;;;12.50;;
4601;SDS011;2313;48.552;9.370;2022-11-30T03:07:22;22.13;;;10.27;;
4601;SDS011;2313;48.552;9.370;2022-11-30T03:09:48;21.67;;;10.23;;
4601;SDS011;2313;48.552;9.370;2022-11-30T03:12:14;19.30;;;10.30;;
4601;SDS011;2313;48.552;9.370;2022-11-30T03:14:39;30.43;;;11.50;;
4601;SDS011;2313;48.552;9.370;2022-11-30T03:17:05;24.17;;;10.73;;
4601;SDS011;2313;48.552;9.370;2022-11-30T03:19:31;19.17;;;10.57;;
4601;SDS011;2313;48.552;9.370;2022-11-30T03:21:57;20.20;;;10.90;;
4601;SDS011;2313;48.552;9.370;2022-11-30T03:24:23;26.90;;;11.10;;
4601;SDS011;2313;48.552;9.370;2022-11-30T03:26:48;20.27;;;10.93;;
4601;SDS011;2313;48.552;9.370;2022-11-30T03:29:15;21.87;;;11.43;;
4601;SDS011;2313;48.552;9.370;2022-11-30T03:31:41;18.53;;;10.40;;
4601;SDS011;2313;48.552;9.370;2022-11-30T03:34:07;19.83;;;10.73;;
4601;SDS011;2313;48.552;9.370;2022-11-30T03:36:32;29.10;;;10.43;;
4601;SDS011;2313;48.552;9.370;2022-11-30T03:38:58;22.80;;;11.33;;
4601;SDS011;2313;48.552;9.370;2022-11-30T03:41:23;27.23;;;11.80;;
4601;SDS011;2313;48.552;9.370;2022-11-30T03:43:49;21.20;;;10.60;;
4601;SDS011;2313;48.552;9.370;2022-11-30T03:46:15;17.80;;;9.60;;
4601;SDS011;2313;48.552;9.370;2022-11-30T03:48:41;19.43;;;9.70;;
4601;SDS011;2313;48.552;9.370;2022-11-30T03:51:07;22.63;;;10.23;;
4601;SDS011;2313;48.552;9.370;2022-11-30T03:53:33;17.57;;;10.33;;
4601;SDS011;2313;48.552;9.370;2022-11-30T03:56:00;25.13;;;9.83;;
4601;SDS011;2313;48.552;9.370;2022-11-30T03:58:28;18.50;;;9.40;;
4601;SDS011;2313;48.552;9.370;2022-11-30T04:03:34;25.20;;;10.50;;
4601;SDS011;2313;48.552;9.370;2022-11-30T04:06:00;17.00;;;10.43;;
4601;SDS011;2313;48.552;9.370;2022-11-30T04:08:26;15.53;;;9.70;;
4601;SDS011;2313;48.552;9.370;2022-11-30T04:10:53;14.10;;;8.97;;
4601;SDS011;2313;48.552;9.370;2022-11-30T04:13:20;15.33;;;9.53;;
4601;SDS011;2313;48.552;9.370;2022-11-30T04:15:46;18.50;;;9.70;;
4601;SDS011;2313;48.552;9.370;2022-11-30T04:18:13;23.53;;;13.87;;
4601;SDS011;2313;48.552;9.370;2022-11-30T04:20:39;18.90;;;12.17;;
4601;SDS011;2313;48.552;9.370;2022-11-30T04:23:05;20.47;;;11.37;;
4601;SDS011;2313;48.552;9.370;2022-11-30T04:25:32;19.40;;;10.87;;
4601;SDS011;2313;48.552;9.370;2022-11-30T04:27:58;29.07;;;11.67;;
4601;SDS011;2313;48.552;9.370;2022-11-30T04:30:23;25.73;;;10.33;;
4601;SDS011;2313;48.552;9.370;2022-11-30T04:32:49;17.00;;;10.30;;
4601;SDS011;2313;48.552;9.370;2022-11-30T04:35:14;15.23;;;10.07;;
4601;SDS011;2313;48.552;9.370;2022-11-30T04:37:40;14.87;;;9.13;;
4601;SDS011;2313;48.552;9.370;2022-11-30T04:40:06;20.43;;;10.43;;
4601;SDS011;2313;48.552;9.370;2022-11-30T04:42:32;17.00;;;9.50;;
4601;SDS011;2313;48.552;9.370;2022-11-30T04:44:57;18.20;;;9.33;;
4601;SDS011;2313;48.552;9.370;2022-11-30T04:47:23;17.87;;;9.80;;
4601;SDS011;2313;48.552;9.370;2022-11-30T04:49:48;18.40;;;10.00;;
4601;SDS011;2313;48.552;9.370;2022-11-30T04:52:14;18.33;;;10.40;;
4601;SDS011;2313;48.552;9.370;2022-11-30T04:54:40;11.77;;;7.90;;
4601;SDS011;2313;48.552;9.370;2022-11-30T04:57:06;17.47;;;9.70;;
4601;SDS011;2313;48.552;9.370;2022-11-30T04:59:31;21.77;;;9.93;;
4601;SDS011;2313;48.552;9.370;2022-11-30T05:01:57;18.30;;;9.70;;
4601;SDS011;2313;48.552;9.370;2022-11-30T05:04:22;19.40;;;10.50;;
4601;SDS011;2313;48.552;9.370;2022-11-30T05:06:48;18.43;;;10.03;;
4601;SDS011;2313;48.552;9.370;2022-11-30T05:09:14;19.53;;;10.87;;
4601;SDS011;2313;48.552;9.370;2022-11-30T05:11:39;20.60;;;10.77;;
4601;SDS011;2313;48.552;9.370;2022-11-30T05:14:05;19.70;;;11.50;;
4601;SDS011;2313;48.552;9.370;2022-11-30T05:16:31;23.30;;;12.20;;
4601;SDS011;2313;48.552;9.370;2022-11-30T05:18:56;21.77;;;10.83;;
4601;SDS011;2313;48.552;9.370;2022-11-30T05:21:22;27.23;;;12.90;;
4601;SDS011;2313;48.552;9.370;2022-11-30T05:23:47;18.37;;;11.00;;
4601;SDS011;2313;48.552;9.370;2022-11-30T05:26:13;22.20;;;13.00;;
4601;SDS011;2313;48.552;9.370;2022-11-30T05:28:39;24.20;;;14.17;;
4601;SDS011;2313;48.552;9.370;2022-11-30T05:31:05;19.43;;;10.00;;
4601;SDS011;2313;48.552;9.370;2022-11-30T05:33:31;28.70;;;12.23;;
4601;SDS011;2313;48.552;9.370;2022-11-30T05:35:57;28.67;;;12.60;;
4601;SDS011;2313;48.552;9.370;2022-11-30T05:38:23;25.77;;;12.27;;
4601;SDS011;2313;48.552;9.370;2022-11-30T05:40:48;36.17;;;13.00;;
4601;SDS011;2313;48.552;9.370;2022-11-30T05:43:14;23.70;;;10.90;;
4601;SDS011;2313;48.552;9.370;2022-11-30T05:45:40;21.03;;;11.00;;
4601;SDS011;2313;48.552;9.370;2022-11-30T05:48:06;26.90;;;12.20;;
4601;SDS011;2313;48.552;9.370;2022-11-30T05:50:31;23.63;;;13.17;;
4601;SDS011;2313;48.552;9.370;2022-11-30T05:52:57;20.90;;;12.27;;
4601;SDS011;2313;48.552;9.370;2022-11-30T05:55:24;22.73;;;11.83;;
4601;SDS011;2313;48.552;9.370;2022-11-30T05:57:51;18.70;;;11.80;;
4601;SDS011;2313;48.552;9.370;2022-11-30T06:00:17;23.23;;;12.60;;
4601;SDS011;2313;48.552;9.370;2022-11-30T06:02:44;21.80;;;11.93;;
4601;SDS011;2313;48.552;9.370;2022-11-30T06:05:10;22.90;;;11.57;;
4601;SDS011;2313;48.552;9.370;2022-11-30T06:07:36;19.27;;;12.07;;
4601;SDS011;2313;48.552;9.370;2022-11-30T06:10:02;22.27;;;12.33;;
4601;SDS011;2313;48.552;9.370;2022-11-30T06:12:28;19.93;;;12.03;;
4601;SDS011;2313;48.552;9.370;2022-11-30T06:14:53;25.00;;;12.37;;
4601;SDS011;2313;48.552;9.370;2022-11-30T06:17:19;21.40;;;12.60;;
4601;SDS011;2313;48.552;9.370;2022-11-30T06:19:45;23.00;;;12.57;;
4601;SDS011;2313;48.552;9.370;2022-11-30T06:22:10;22.10;;;12.17;;
4601;SDS011;2313;48.552;9.370;2022-11-30T06:24:36;23.13;;;14.50;;
4601;SDS011;2313;48.552;9.370;2022-11-30T06:27:01;24.40;;;14.30;;
4601;SDS011;2313;48.552;9.370;2022-11-30T06:29:27;18.93;;;10.73;;
4601;SDS011;2313;48.552;9.370;2022-11-30T06:31:52;24.17;;;13.00;;
4601;SDS011;2313;48.552;9.370;2022-11-30T06:34:18;22.30;;;11.90;;
4601;SDS011;2313;48.552;9.370;2022-11-30T06:36:44;19.30;;;10.90;;
4601;SDS011;2313;48.552;9.370;2022-11-30T06:39:10;24.93;;;12.33;;
4601;SDS011;2313;48.552;9.370;2022-11-30T06:41:36;26.57;;;12.20;;
4601;SDS011;2313;48.552;9.370;2022-11-30T06:44:06;31.47;;;14.10;;
4601;SDS011;2313;48.552;9.370;2022-11-30T06:46:34;32.40;;;12.90;;
4601;SDS011;2313;48.552;9.370;2022-11-30T06:49:01;27.33;;;12.50;;
4601;SDS011;2313;48.552;9.370;2022-11-30T06:51:26;28.90;;;13.67;;
4601;SDS011;2313;48.552;9.370;2022-11-30T06:53:52;25.40;;;12.83;;
4601;SDS011;2313;48.552;9.370;2022-11-30T06:56:18;29.80;;;12.67;;
4601;SDS011;2313;48.552;9.370;2022-11-30T06:58:43;26.37;;;13.10;;
4601;SDS011;2313;48.552;9.370;2022-11-30T07:01:10;26.07;;;12.53;;
4601;SDS011;2313;48.552;9.370;2022-11-30T07:03:37;27.43;;;13.03;;
4601;SDS011;2313;48.552;9.370;2022-11-30T07:06:07;24.40;;;11.33;;
4601;SDS011;2313;48.552;9.370;2022-11-30T07:08:34;26.40;;;13.25;;
4601;SDS011;2313;48.552;9.370;2022-11-30T07:11:00;25.97;;;11.90;;
4601;SDS011;2313;48.552;9.370;2022-11-30T07:13:26;22.70;;;11.23;;
4601;SDS011;2313;48.552;9.370;2022-11-30T07:15:51;26.87;;;12.33;;
4601;SDS011;2313;48.552;9.370;2022-11-30T07:18:17;27.27;;;12.73;;
4601;SDS011;2313;48.552;9.370;2022-11-30T07:20:43;27.93;;;12.00;;
4601;SDS011;2313;48.552;9.370;2022-11-30T07:23:08;22.37;;;11.67;;
4601;SDS011;2313;48.552;9.370;2022-11-30T07:25:52;24.40;;;11.63;;
4601;SDS011;2313;48.552;9.370;2022-11-30T07:28:33;29.20;;;12.97;;
4601;SDS011;2313;48.552;9.370;2022-11-30T07:31:01;27.42;;;12.77;;
4601;SDS011;2313;48.552;9.370;2022-11-30T07:33:36;23.90;;;11.80;;
4601;SDS011;2313;48.552;9.370;2022-11-30T07:36:01;33.73;;;15.23;;
4601;SDS011;2313;48.552;9.370;2022-11-30T07:38:27;33.90;;;16.60;;
4601;SDS011;2313;48.552;9.370;2022-11-30T07:40:53;31.70;;;16.73;;
4601;SDS011;2313;48.552;9.370;2022-11-30T07:43:18;25.40;;;12.90;;
4601;SDS011;2313;48.552;9.370;2022-11-30T07:45:49;22.83;;;11.40;;
4601;SDS011;2313;48.552;9.370;2022-11-30T07:48:16;25.60;;;14.33;;
4601;SDS011;2313;48.552;9.370;2022-11-30T07:50:41;23.77;;;13.63;;
4601;SDS011;2313;48.552;9.370;2022-11-30T07:53:07;24.27;;;12.17;;
4601;SDS011;2313;48.552;9.370;2022-11-30T07:55:32;20.50;;;11.53;;
4601;SDS011;2313;48.552;9.370;2022-11-30T07:57:58;16.50;;;9.53;;
4601;SDS011;2313;48.552;9.370;2022-11-30T08:00:23;16.13;;;8.23;;
4601;SDS011;2313;48.552;9.370;2022-11-30T08:02:49;16.00;;;9.00;;
4601;SDS011;2313;48.552;9.370;2022-11-30T08:05:15;17.93;;;9.83;;
4601;SDS011;2313;48.552;9.370;2022-11-30T08:07:41;22.20;;;10.93;;
4601;SDS011;2313;48.552;9.370;2022-11-30T08:10:07;14.93;;;8.93;;
4601;SDS011;2313;48.552;9.370;2022-11-30T08:12:33;21.40;;;10.00;;
4601;SDS011;2313;48.552;9.370;2022-11-30T08:14:59;18.33;;;10.30;;
4601;SDS011;2313;48.552;9.370;2022-11-30T08:17:24;21.57;;;11.23;;
4601;SDS011;2313;48.552;9.370;2022-11-30T08:19:50;17.57;;;10.27;;
4601;SDS011;2313;48.552;9.370;2022-11-30T08:22:15;21.77;;;11.57;;
4601;SDS011;2313;48.552;9.370;2022-11-30T08:24:41;20.90;;;10.40;;
4601;SDS011;2313;48.552;9.370;2022-11-30T08:27:06;20.53;;;11.50;;
4601;SDS011;2313;48.552;9.370;2022-11-30T08:29:32;22.97;;;11.27;;
4601;SDS011;2313;48.552;9.370;2022-11-30T08:31:58;19.77;;;11.40;;
4601;SDS011;2313;48.552;9.370;2022-11-30T08:34:23;23.87;;;12.70;;
4601;SDS011;2313;48.552;9.370;2022-11-30T08:36:50;24.93;;;14.23;;
4601;SDS011;2313;48.552;9.370;2022-11-30T08:39:16;26.93;;;14.00;;
4601;SDS011;2313;48.552;9.370;2022-11-30T08:41:42;24.10;;;13.13;;
4601;SDS011;2313;48.552;9.370;2022-11-30T08:44:07;20.33;;;11.43;;
4601;SDS011;2313;48.552;9.370;2022-11-30T08:46:33;18.60;;;10.07;;
4601;SDS011;2313;48.552;9.370;2022-11-30T08:49:00;17.60;;;11.23;;
4601;SDS011;2313;48.552;9.370;2022-11-30T08:51:26;26.53;;;15.77;;
4601;SDS011;2313;48.552;9.370;2022-11-30T08:53:51;29.43;;;15.57;;
4601;SDS011;2313;48.552;9.370;2022-11-30T08:56:19;31.23;;;16.37;;
4601;SDS011;2313;48.552;9.370;2022-11-30T08:58:45;39.77;;;20.50;;
4601;SDS011;2313;48.552;9.370;2022-11-30T09:03:37;30.03;;;16.77;;
4601;SDS011;2313;48.552;9.370;2022-11-30T09:06:08;31.77;;;16.80;;
4601;SDS011;2313;48.552;9.370;2022-11-30T09:08:39;31.20;;;14.23;;
4601;SDS011;2313;48.552;9.370;2022-11-30T09:11:14;25.80;;;15.00;;
4601;SDS011;2313;48.552;9.370;2022-11-30T09:13:41;22.10;;;12.33;;
4601;SDS011;2313;48.552;9.370;2022-11-30T09:16:08;22.87;;;14.63;;
4601;SDS011;2313;48.552;9.370;2022-11-30T09:18:34;25.83;;;13.80;;
4601;SDS011;2313;48.552;9.370;2022-11-30T09:21:00;31.47;;;14.17;;
4601;SDS011;2313;48.552;9.370;2022-11-30T09:23:28;32.10;;;15.07;;
4601;SDS011;2313;48.552;9.370;2022-11-30T09:25:54;31.43;;;14.27;;
4601;SDS011;2313;48.552;9.370;2022-11-30T09:28:21;21.67;;;12.87;;
4601;SDS011;2313;48.552;9.370;2022-11-30T09:30:47;24.47;;;13.53;;
4601;SDS011;2313;48.552;9.370;2022-11-30T09:33:12;26.73;;;12.90;;
4601;SDS011;2313;48.552;9.370;2022-11-30T09:35:38;25.80;;;12.50;;
4601;SDS011;2313;48.552;9.370;2022-11-30T09:38:03;21.77;;;11.90;;
4601;SDS011;2313;48.552;9.370;2022-11-30T09:40:29;24.37;;;12.07;;
4601;SDS011;2313;48.552;9.370;2022-11-30T09:45:27;23.50;;;13.30;;
4601;SDS011;2313;48.552;9.370;2022-11-30T09:48:04;23.10;;;11.57;;
4601;SDS011;2313;48.552;9.370;2022-11-30T09:50:51;23.00;;;12.93;;
4601;SDS011;2313;48.552;9.370;2022-11-30T09:53:26;24.20;;;12.30;;
4601;SDS011;2313;48.552;9.370;2022-11-30T09:56:05;25.07;;;11.80;;
4601;SDS011;2313;48.552;9.370;2022-11-30T09:58:55;24.23;;;13.43;;
4601;SDS011;2313;48.552;9.370;2022-11-30T10:01:28;19.93;;;11.37;;
4601;SDS011;2313;48.552;9.370;2022-11-30T10:03:54;17.70;;;11.03;;
4601;SDS011;2313;48.552;9.370;2022-11-30T10:06:40;18.37;;;10.57;;
4601;SDS011;2313;48.552;9.370;2022-11-30T10:09:16;24.50;;;11.43;;
4601;SDS011;2313;48.552;9.370;2022-11-30T10:22:50;21.10;;;11.77;;
4601;SDS011;2313;48.552;9.370;2022-11-30T10:25:25;24.17;;;11.53;;
4601;SDS011;2313;48.552;9.370;2022-11-30T10:28:20;21.90;;;11.80;;
4601;SDS011;2313;48.552;9.370;2022-11-30T10:31:03;24.27;;;13.23;;
4601;SDS011;2313;48.552;9.370;2022-11-30T10:33:31;28.17;;;13.70;;
4601;SDS011;2313;48.552;9.370;2022-11-30T10:36:40;24.83;;;13.63;;
4601;SDS011;2313;48.552;9.370;2022-11-30T10:39:05;26.07;;;13.27;;
4601;SDS011;2313;48.552;9.370;2022-11-30T10:41:47;25.23;;;13.30;;
4601;SDS011;2313;48.552;9.370;2022-11-30T10:44:21;28.70;;;15.00;;
4601;SDS011;2313;48.552;9.370;2022-11-30T10:46:56;21.07;;;13.00;;
4601;SDS011;2313;48.552;9.370;2022-11-30T10:49:45;23.00;;;13.60;;
4601;SDS011;2313;48.552;9.370;2022-11-30T10:52:23;26.37;;;14.63;;
4601;SDS011;2313;48.552;9.370;2022-11-30T10:54:53;31.43;;;16.50;;
4601;SDS011;2313;48.552;9.370;2022-11-30T10:57:20;27.40;;;14.33;;
4601;SDS011;2313;48.552;9.370;2022-11-30T10:59:49;30.20;;;15.57;;
4601;SDS011;2313;48.552;9.370;2022-11-30T11:05:18;27.87;;;15.40;;
4601;SDS011;2313;48.552;9.370;2022-11-30T11:10:16;26.77;;;14.73;;
4601;SDS011;2313;48.552;9.370;2022-11-30T11:12:50;28.50;;;15.93;;
4601;SDS011;2313;48.552;9.370;2022-11-30T11:17:50;27.83;;;16.03;;
4601;SDS011;2313;48.552;9.370;2022-11-30T11:20:31;28.30;;;16.50;;
4601;SDS011;2313;48.552;9.370;2022-11-30T11:22:59;32.53;;;18.07;;
4601;SDS011;2313;48.552;9.370;2022-11-30T11:25:35;30.43;;;16.90;;
4601;SDS011;2313;48.552;9.370;2022-11-30T11:28:19;26.23;;;15.03;;
4601;SDS011;2313;48.552;9.370;2022-11-30T11:30:46;26.30;;;15.10;;
4601;SDS011;2313;48.552;9.370;2022-11-30T11:41:33;27.67;;;15.10;;
4601;SDS011;2313;48.552;9.370;2022-11-30T11:43:58;25.70;;;14.00;;
4601;SDS011;2313;48.552;9.370;2022-11-30T11:46:31;24.80;;;13.47;;
4601;SDS011;2313;48.552;9.370;2022-11-30T11:51:38;26.73;;;15.00;;
4601;SDS011;2313;48.552;9.370;2022-11-30T11:54:38;23.47;;;12.97;;
4601;SDS011;2313;48.552;9.370;2022-11-30T11:57:13;24.10;;;14.00;;
4601;SDS011;2313;48.552;9.370;2022-11-30T11:59:44;28.80;;;13.50;;
4601;SDS011;2313;48.552;9.370;2022-11-30T12:02:25;26.80;;;14.27;;
4601;SDS011;2313;48.552;9.370;2022-11-30T12:04:55;21.07;;;12.10;;
4601;SDS011;2313;48.552;9.370;2022-11-30T12:07:28;20.70;;;11.90;;
4601;SDS011;2313;48.552;9.370;2022-11-30T12:10:26;18.53;;;12.20;;
4601;SDS011;2313;48.552;9.370;2022-11-30T12:13:13;22.73;;;12.43;;
4601;SDS011;2313;48.552;9.370;2022-11-30T12:18:22;28.10;;;13.90;;
4601;SDS011;2313;48.552;9.370;2022-11-30T12:21:00;21.97;;;13.20;;
4601;SDS011;2313;48.552;9.370;2022-11-30T12:23:35;21.40;;;13.57;;
4601;SDS011;2313;48.552;9.370;2022-11-30T12:26:25;24.30;;;14.37;;
4601;SDS011;2313;48.552;9.370;2022-11-30T12:31:59;26.37;;;15.00;;
4601;SDS011;2313;48.552;9.370;2022-11-30T12:34:38;27.13;;;14.60;;
4601;SDS011;2313;48.552;9.370;2022-11-30T12:42:42;25.80;;;14.03;;
4601;SDS011;2313;48.552;9.370;2022-11-30T12:50:44;22.63;;;14.07;;
4601;SDS011;2313;48.552;9.370;2022-11-30T13:04:47;31.00;;;14.30;;
4601;SDS011;2313;48.552;9.370;2022-11-30T13:10:02;22.83;;;13.03;;
4601;SDS011;2313;48.552;9.370;2022-11-30T13:12:57;20.17;;;11.90;;
4601;SDS011;2313;48.552;9.370;2022-11-30T13:15:26;22.57;;;12.63;;
4601;SDS011;2313;48.552;9.370;2022-11-30T13:17:55;19.07;;;11.63;;
4601;SDS011;2313;48.552;9.370;2022-11-30T13:31:45;18.60;;;10.93;;
4601;SDS011;2313;48.552;9.370;2022-11-30T13:34:27;20.60;;;12.37;;
4601;SDS011;2313;48.552;9.370;2022-11-30T13:39:55;26.03;;;12.90;;
4601;SDS011;2313;48.552;9.370;2022-11-30T13:42:27;25.60;;;13.17;;
4601;SDS011;2313;48.552;9.370;2022-11-30T13:44:53;27.43;;;14.50;;
4601;SDS011;2313;48.552;9.370;2022-11-30T13:47:28;26.47;;;14.43;;
4601;SDS011;2313;48.552;9.370;2022-11-30T13:49:57;30.80;;;15.27;;
4601;SDS011;2313;48.552;9.370;2022-11-30T13:53:04;32.47;;;17.80;;
4601;SDS011;2313;48.552;9.370;2022-11-30T14:05:49;34.97;;;17.40;;
4601;SDS011;2313;48.552;9.370;2022-11-30T14:10:45;35.93;;;18.30;;
4601;SDS011;2313;48.552;9.370;2022-11-30T14:20:41;33.03;;;18.07;;
4601;SDS011;2313;48.552;9.370;2022-11-30T14:26:02;32.92;;;16.20;;
4601;SDS011;2313;48.552;9.370;2022-11-30T14:28:33;34.30;;;18.97;;
4601;SDS011;2313;48.552;9.370;2022-11-30T14:31:25;30.37;;;15.73;;
4601;SDS011;2313;48.552;9.370;2022-11-30T14:33:55;33.60;;;17.23;;
4601;SDS011;2313;48.552;9.370;2022-11-30T14:36:27;36.07;;;18.03;;
4601;SDS011;2313;48.552;9.370;2022-11-30T14:38:59;36.97;;;18.43;;
4601;SDS011;2313;48.552;9.370;2022-11-30T14:41:25;45.27;;;22.50;;
4601;SDS011;2313;48.552;9.370;2022-11-30T14:43:59;37.43;;;19.77;;
4601;SDS011;2313;48.552;9.370;2022-11-30T14:46:26;42.53;;;20.83;;
4601;SDS011;2313;48.552;9.370;2022-11-30T14:49:12;49.67;;;22.30;;
4601;SDS011;2313;48.552;9.370;2022-11-30T14:51:53;40.40;;;21.80;;
4601;SDS011;2313;48.552;9.370;2022-11-30T14:54:41;39.50;;;20.83;;
4601;SDS011;2313;48.552;9.370;2022-11-30T14:57:16;45.60;;;20.07;;
4601;SDS011;2313;48.552;9.370;2022-11-30T14:59:51;40.17;;;18.50;;
4601;SDS011;2313;48.552;9.370;2022-11-30T15:02:23;39.77;;;19.00;;
4601;SDS011;2313;48.552;9.370;2022-11-30T15:04:58;36.90;;;19.40;;
4601;SDS011;2313;48.552;9.370;2022-11-30T15:07:24;39.73;;;20.47;;
4601;SDS011;2313;48.552;9.370;2022-11-30T15:09:51;34.97;;;18.10;;
4601;SDS011;2313;48.552;9.370;2022-11-30T15:12:38;37.50;;;17.80;;
4601;SDS011;2313;48.552;9.370;2022-11-30T15:15:39;40.70;;;20.80;;
4601;SDS011;2313;48.552;9.370;2022-11-30T15:18:15;35.80;;;17.30;;
4601;SDS011;2313;48.552;9.370;2022-11-30T15:23:12;36.63;;;18.87;;
4601;SDS011;2313;48.552;9.370;2022-11-30T15:25:42;34.20;;;18.40;;
4601;SDS011;2313;48.552;9.370;2022-11-30T15:28:33;37.50;;;18.43;;
4601;SDS011;2313;48.552;9.370;2022-11-30T15:31:03;46.53;;;25.00;;
4601;SDS011;2313;48.552;9.370;2022-11-30T15:33:32;53.67;;;29.57;;
4601;SDS011;2313;48.552;9.370;2022-11-30T15:36:04;38.57;;;21.70;;
4601;SDS011;2313;48.552;9.370;2022-11-30T15:38:31;42.20;;;20.17;;
4601;SDS011;2313;48.552;9.370;2022-11-30T15:41:04;37.73;;;17.30;;
4601;SDS011;2313;48.552;9.370;2022-11-30T15:43:42;33.97;;;17.87;;
4601;SDS011;2313;48.552;9.370;2022-11-30T15:46:26;42.90;;;19.40;;
4601;SDS011;2313;48.552;9.370;2022-11-30T15:49:21;43.60;;;20.37;;
4601;SDS011;2313;48.552;9.370;2022-11-30T15:52:04;47.10;;;22.00;;
4601;SDS011;2313;48.552;9.370;2022-11-30T15:54:42;42.93;;;20.90;;
4601;SDS011;2313;48.552;9.370;2022-11-30T15:57:20;40.93;;;19.40;;
4601;SDS011;2313;48.552;9.370;2022-11-30T16:00:06;46.27;;;19.40;;
4601;SDS011;2313;48.552;9.370;2022-11-30T16:02:44;37.87;;;19.27;;
4601;SDS011;2313;48.552;9.370;2022-11-30T16:07:49;39.77;;;19.80;;
4601;SDS011;2313;48.552;9.370;2022-11-30T16:12:51;27.40;;;15.80;;
4601;SDS011;2313;48.552;9.370;2022-11-30T16:15:19;30.80;;;15.43;;
4601;SDS011;2313;48.552;9.370;2022-11-30T16:17:48;40.53;;;17.70;;
4601;SDS011;2313;48.552;9.370;2022-11-30T16:20:14;27.40;;;15.60;;
4601;SDS011;2313;48.552;9.370;2022-11-30T16:22:41;30.50;;;16.93;;
4601;SDS011;2313;48.552;9.370;2022-11-30T16:25:16;30.90;;;16.00;;
4601;SDS011;2313;48.552;9.370;2022-11-30T16:27:46;29.90;;;15.70;;
4601;SDS011;2313;48.552;9.370;2022-11-30T16:30:13;28.73;;;14.47;;
4601;SDS011;2313;48.552;9.370;2022-11-30T16:32:41;28.10;;;16.27;;
4601;SDS011;2313;48.552;9.370;2022-11-30T16:35:33;29.10;;;14.30;;
4601;SDS011;2313;48.552;9.370;2022-11-30T16:37:58;26.70;;;14.50;;
4601;SDS011;2313;48.552;9.370;2022-11-30T16:40:24;24.33;;;12.00;;
4601;SDS011;2313;48.552;9.370;2022-11-30T16:42:49;19.37;;;11.10;;
4601;SDS011;2313;48.552;9.370;2022-11-30T16:45:20;28.30;;;11.82;;
4601;SDS011;2313;48.552;9.370;2022-11-30T16:47:47;27.30;;;13.90;;
4601;SDS011;2313;48.552;9.370;2022-11-30T16:50:13;21.93;;;13.00;;
4601;SDS011;2313;48.552;9.370;2022-11-30T16:52:40;25.10;;;13.50;;
4601;SDS011;2313;48.552;9.370;2022-11-30T16:55:13;19.53;;;12.07;;
4601;SDS011;2313;48.552;9.370;2022-11-30T16:57:39;25.63;;;13.07;;
4601;SDS011;2313;48.552;9.370;2022-11-30T17:00:05;27.97;;;14.13;;
4601;SDS011;2313;48.552;9.370;2022-11-30T17:02:32;24.30;;;14.87;;
4601;SDS011;2313;48.552;9.370;2022-11-30T17:04:59;28.80;;;14.20;;
4601;SDS011;2313;48.552;9.370;2022-11-30T17:07:25;32.43;;;15.67;;
4601;SDS011;2313;48.552;9.370;2022-11-30T17:09:51;30.13;;;14.70;;
4601;SDS011;2313;48.552;9.370;2022-11-30T17:12:20;24.53;;;11.93;;
4601;SDS011;2313;48.552;9.370;2022-11-30T17:14:45;20.03;;;12.07;;
4601;SDS011;2313;48.552;9.370;2022-11-30T17:17:11;26.33;;;14.60;;
4601;SDS011;2313;48.552;9.370;2022-11-30T17:19:37;23.00;;;13.80;;
4601;SDS011;2313;48.552;9.370;2022-11-30T17:22:02;24.83;;;17.47;;